sensor_id;sensor_type;location;lat;lon;timestamp;P1;durP1;ratioP1;P2;durP2;ratioP2
11398;SDS011;5755;48.116;11.608;2023-01-24T00:00:01;30.77;;;18.10;;
11398;SDS011;5755;48.116;11.608;2023-01-24T00:02:30;34.07;;;19.30;;
11398;SDS011;5755;48.116;11.608;2023-01-24T00:04:57;35.77;;;19.70;;
11398;SDS011;5755;48.116;11.608;2023-01-24T00:07:24;33.07;;;18.27;;
11398;SDS011;5755;48.116;11.608;2023-01-24T00:09:51;34.43;;;18.43;;
11398;SDS011;5755;48.116;11.608;2023-01-24T00:12:17;37.77;;;19.93;;
11398;SDS011;5755;48.116;11.608;2023-01-24T00:14:44;34.80;;;19.97;;
11398;SDS011;5755;48.116;11.608;2023-01-24T00:17:11;36.33;;;20.17;;
11398;SDS011;5755;48.116;11.608;2023-01-24T00:19:39;33.37;;;18.63;;
11398;SDS011;5755;48.116;11.608;2023-01-24T00:22:06;36.57;;;19.17;;
11398;SDS011;5755;48.116;11.608;2023-01-24T00:24:33;35.53;;;18.80;;
11398;SDS011;5755;48.116;11.608;2023-01-24T00:27:00;36.03;;;20.17;;
11398;SDS011;5755;48.116;11.608;2023-01-24T00:29:27;34.70;;;20.17;;
11398;SDS011;5755;48.116;11.608;2023-01-24T00:31:54;35.77;;;19.10;;
11398;SDS011;5755;48.116;11.608;2023-01-24T00:34:21;35.17;;;20.50;;
11398;SDS011;5755;48.116;11.608;2023-01-24T00:36:49;36.50;;;19.73;;
11398;SDS011;5755;48.116;11.608;2023-01-24T00:39:16;39.67;;;20.20;;
11398;SDS011;5755;48.116;11.608;2023-01-24T00:41:43;37.07;;;20.17;;
11398;SDS011;5755;48.116;11.608;2023-01-24T00:44:10;37.73;;;20.33;;
11398;SDS011;5755;48.116;11.608;2023-01-24T00:46:37;37.73;;;20.07;;
11398;SDS011;5755;48.116;11.608;2023-01-24T00:49:04;34.57;;;19.57;;
11398;SDS011;5755;48.116;11.608;2023-01-24T00:51:31;37.10;;;20.30;;
11398;SDS011;5755;48.116;11.608;2023-01-24T00:53:59;34.97;;;19.03;;
11398;SDS011;5755;48.116;11.608;2023-01-24T00:56:26;35.93;;;19.90;;
11398;SDS011;5755;48.116;11.608;2023-01-24T00:58:53;34.93;;;20.33;;
11398;SDS011;5755;48.116;11.608;2023-01-24T01:01:20;39.87;;;20.97;;
11398;SDS011;5755;48.116;11.608;2023-01-24T01:03:47;36.50;;;19.53;;
11398;SDS011;5755;48.116;11.608;2023-01-24T01:06:14;34.00;;;19.27;;
11398;SDS011;5755;48.116;11.608;2023-01-24T01:08:42;36.97;;;20.43;;
11398;SDS011;5755;48.116;11.608;2023-01-24T01:11:11;38.10;;;19.87;;
11398;SDS011;5755;48.116;11.608;2023-01-24T01:13:37;36.33;;;19.80;;
11398;SDS011;5755;48.116;11.608;2023-01-24T01:16:05;36.23;;;19.97;;
11398;SDS011;5755;48.116;11.608;2023-01-24T01:18:33;41.87;;;20.63;;
11398;SDS011;5755;48.116;11.608;2023-01-24T01:21:01;43.30;;;21.50;;
11398;SDS011;5755;48.116;11.608;2023-01-24T01:23:28;39.90;;;20.77;;
11398;SDS011;5755;48.116;11.608;2023-01-24T01:25:58;38.83;;;20.97;;
11398;SDS011;5755;48.116;11.608;2023-01-24T01:28:27;40.80;;;20.70;;
11398;SDS011;5755;48.116;11.608;2023-01-24T01:30:54;35.63;;;19.40;;
11398;SDS011;5755;48.116;11.608;2023-01-24T01:33:22;38.73;;;20.73;;
11398;SDS011;5755;48.116;11.608;2023-01-24T01:35:49;39.63;;;21.00;;
11398;SDS011;5755;48.116;11.608;2023-01-24T01:38:17;38.60;;;20.60;;
11398;SDS011;5755;48.116;11.608;2023-01-24T01:40:44;40.07;;;20.30;;
11398;SDS011;5755;48.116;11.608;2023-01-24T01:43:12;39.03;;;20.70;;
11398;SDS011;5755;48.116;11.608;2023-01-24T01:45:42;36.70;;;20.00;;
11398;SDS011;5755;48.116;11.608;2023-01-24T01:48:21;39.77;;;20.73;;
11398;SDS011;5755;48.116;11.608;2023-01-24T01:50:54;40.43;;;21.03;;
11398;SDS011;5755;48.116;11.608;2023-01-24T01:53:26;40.80;;;21.33;;
11398;SDS011;5755;48.116;11.608;2023-01-24T01:55:57;41.33;;;21.70;;
11398;SDS011;5755;48.116;11.608;2023-01-24T01:58:27;37.50;;;20.20;;
11398;SDS011;5755;48.116;11.608;2023-01-24T02:00:55;39.33;;;21.27;;
11398;SDS011;5755;48.116;11.608;2023-01-24T02:03:25;39.53;;;20.97;;
11398;SDS011;5755;48.116;11.608;2023-01-24T02:06:05;45.43;;;21.33;;
11398;SDS011;5755;48.116;11.608;2023-01-24T02:08:36;41.13;;;21.37;;
11398;SDS011;5755;48.116;11.608;2023-01-24T02:11:04;41.60;;;21.57;;
11398;SDS011;5755;48.116;11.608;2023-01-24T02:13:50;42.00;;;21.43;;
11398;SDS011;5755;48.116;11.608;2023-01-24T02:16:38;45.07;;;21.77;;
11398;SDS011;5755;48.116;11.608;2023-01-24T02:19:04;44.00;;;21.90;;
11398;SDS011;5755;48.116;11.608;2023-01-24T02:21:36;46.20;;;20.90;;
11398;SDS011;5755;48.116;11.608;2023-01-24T02:24:05;39.47;;;20.80;;
11398;SDS011;5755;48.116;11.608;2023-01-24T02:26:41;44.30;;;22.17;;
11398;SDS011;5755;48.116;11.608;2023-01-24T02:29:09;45.83;;;23.47;;
11398;SDS011;5755;48.116;11.608;2023-01-24T02:31:54;42.57;;;22.07;;
11398;SDS011;5755;48.116;11.608;2023-01-24T02:34:22;41.00;;;21.50;;
11398;SDS011;5755;48.116;11.608;2023-01-24T02:36:51;40.60;;;21.03;;
11398;SDS011;5755;48.116;11.608;2023-01-24T02:39:22;42.97;;;21.73;;
11398;SDS011;5755;48.116;11.608;2023-01-24T02:41:54;40.37;;;20.90;;
11398;SDS011;5755;48.116;11.608;2023-01-24T02:44:26;44.30;;;21.97;;
11398;SDS011;5755;48.116;11.608;2023-01-24T02:46:58;38.73;;;21.10;;
11398;SDS011;5755;48.116;11.608;2023-01-24T02:49:25;41.97;;;21.13;;
11398;SDS011;5755;48.116;11.608;2023-01-24T02:51:52;41.93;;;20.33;;
11398;SDS011;5755;48.116;11.608;2023-01-24T02:54:37;40.33;;;20.63;;
11398;SDS011;5755;48.116;11.608;2023-01-24T02:57:06;44.37;;;20.90;;
11398;SDS011;5755;48.116;11.608;2023-01-24T02:59:51;40.93;;;20.97;;
11398;SDS011;5755;48.116;11.608;2023-01-24T03:02:18;39.03;;;19.83;;
11398;SDS011;5755;48.116;11.608;2023-01-24T03:04:44;40.27;;;19.67;;
11398;SDS011;5755;48.116;11.608;2023-01-24T03:07:11;39.87;;;20.37;;
11398;SDS011;5755;48.116;11.608;2023-01-24T03:09:38;42.57;;;20.33;;
11398;SDS011;5755;48.116;11.608;2023-01-24T03:12:13;37.97;;;19.57;;
11398;SDS011;5755;48.116;11.608;2023-01-24T03:14:57;35.70;;;19.10;;
11398;SDS011;5755;48.116;11.608;2023-01-24T03:17:41;39.57;;;20.10;;
11398;SDS011;5755;48.116;11.608;2023-01-24T03:20:26;42.70;;;20.77;;
11398;SDS011;5755;48.116;11.608;2023-01-24T03:23:10;43.90;;;20.90;;
11398;SDS011;5755;48.116;11.608;2023-01-24T03:25:54;45.63;;;21.90;;
11398;SDS011;5755;48.116;11.608;2023-01-24T03:28:41;41.37;;;22.43;;
11398;SDS011;5755;48.116;11.608;2023-01-24T03:31:25;45.50;;;22.23;;
11398;SDS011;5755;48.116;11.608;2023-01-24T03:34:11;43.00;;;21.23;;
11398;SDS011;5755;48.116;11.608;2023-01-24T03:36:56;41.10;;;21.47;;
11398;SDS011;5755;48.116;11.608;2023-01-24T03:39:23;41.63;;;21.50;;
11398;SDS011;5755;48.116;11.608;2023-01-24T03:42:07;40.80;;;20.60;;
11398;SDS011;5755;48.116;11.608;2023-01-24T03:44:35;36.70;;;19.87;;
11398;SDS011;5755;48.116;11.608;2023-01-24T03:47:03;36.97;;;19.30;;
11398;SDS011;5755;48.116;11.608;2023-01-24T03:49:29;34.97;;;19.20;;
11398;SDS011;5755;48.116;11.608;2023-01-24T03:52:13;36.50;;;19.70;;
11398;SDS011;5755;48.116;11.608;2023-01-24T03:54:53;36.33;;;19.13;;
11398;SDS011;5755;48.116;11.608;2023-01-24T03:57:21;43.13;;;19.77;;
11398;SDS011;5755;48.116;11.608;2023-01-24T03:59:50;37.33;;;18.67;;
11398;SDS011;5755;48.116;11.608;2023-01-24T04:02:16;35.60;;;18.93;;
11398;SDS011;5755;48.116;11.608;2023-01-24T04:04:43;32.20;;;18.97;;
11398;SDS011;5755;48.116;11.608;2023-01-24T04:07:28;35.17;;;19.43;;
11398;SDS011;5755;48.116;11.608;2023-01-24T04:09:55;38.03;;;21.10;;
11398;SDS011;5755;48.116;11.608;2023-01-24T04:12:23;40.33;;;21.50;;
11398;SDS011;5755;48.116;11.608;2023-01-24T04:14:52;43.07;;;23.30;;
11398;SDS011;5755;48.116;11.608;2023-01-24T04:17:19;42.60;;;22.13;;
11398;SDS011;5755;48.116;11.608;2023-01-24T04:19:46;40.77;;;21.50;;
11398;SDS011;5755;48.116;11.608;2023-01-24T04:22:13;41.77;;;21.67;;
11398;SDS011;5755;48.116;11.608;2023-01-24T04:24:41;40.27;;;22.13;;
11398;SDS011;5755;48.116;11.608;2023-01-24T04:27:08;43.60;;;22.77;;
11398;SDS011;5755;48.116;11.608;2023-01-24T04:29:35;41.30;;;21.53;;
11398;SDS011;5755;48.116;11.608;2023-01-24T04:32:04;39.27;;;21.03;;
11398;SDS011;5755;48.116;11.608;2023-01-24T04:34:31;38.90;;;21.13;;
11398;SDS011;5755;48.116;11.608;2023-01-24T04:36:58;36.87;;;20.77;;
11398;SDS011;5755;48.116;11.608;2023-01-24T04:39:25;38.67;;;20.77;;
11398;SDS011;5755;48.116;11.608;2023-01-24T04:41:52;39.37;;;20.20;;
11398;SDS011;5755;48.116;11.608;2023-01-24T04:44:19;39.90;;;21.07;;
11398;SDS011;5755;48.116;11.608;2023-01-24T04:46:45;37.37;;;20.53;;
11398;SDS011;5755;48.116;11.608;2023-01-24T04:49:13;40.67;;;20.13;;
11398;SDS011;5755;48.116;11.608;2023-01-24T04:51:40;36.77;;;20.03;;
11398;SDS011;5755;48.116;11.608;2023-01-24T04:54:08;39.77;;;21.40;;
11398;SDS011;5755;48.116;11.608;2023-01-24T04:56:35;38.20;;;21.10;;
11398;SDS011;5755;48.116;11.608;2023-01-24T04:59:02;41.67;;;22.10;;
11398;SDS011;5755;48.116;11.608;2023-01-24T05:01:29;39.13;;;20.77;;
11398;SDS011;5755;48.116;11.608;2023-01-24T05:03:56;38.03;;;20.60;;
11398;SDS011;5755;48.116;11.608;2023-01-24T05:06:26;40.57;;;21.43;;
11398;SDS011;5755;48.116;11.608;2023-01-24T05:08:54;42.97;;;22.43;;
11398;SDS011;5755;48.116;11.608;2023-01-24T05:11:22;40.17;;;21.13;;
11398;SDS011;5755;48.116;11.608;2023-01-24T05:13:50;38.20;;;19.97;;
11398;SDS011;5755;48.116;11.608;2023-01-24T05:16:17;38.43;;;21.43;;
11398;SDS011;5755;48.116;11.608;2023-01-24T05:18:44;38.27;;;20.73;;
11398;SDS011;5755;48.116;11.608;2023-01-24T05:21:12;42.00;;;20.60;;
11398;SDS011;5755;48.116;11.608;2023-01-24T05:23:42;35.13;;;19.50;;
11398;SDS011;5755;48.116;11.608;2023-01-24T05:26:09;39.37;;;20.47;;
11398;SDS011;5755;48.116;11.608;2023-01-24T05:28:36;37.07;;;19.03;;
11398;SDS011;5755;48.116;11.608;2023-01-24T05:31:04;36.77;;;19.47;;
11398;SDS011;5755;48.116;11.608;2023-01-24T05:33:33;41.03;;;20.07;;
11398;SDS011;5755;48.116;11.608;2023-01-24T05:36:01;38.10;;;19.77;;
11398;SDS011;5755;48.116;11.608;2023-01-24T05:38:29;34.27;;;18.53;;
11398;SDS011;5755;48.116;11.608;2023-01-24T05:40:59;40.13;;;18.90;;
11398;SDS011;5755;48.116;11.608;2023-01-24T05:43:27;34.07;;;18.03;;
11398;SDS011;5755;48.116;11.608;2023-01-24T05:45:56;35.23;;;18.87;;
11398;SDS011;5755;48.116;11.608;2023-01-24T05:48:24;36.53;;;18.67;;
11398;SDS011;5755;48.116;11.608;2023-01-24T05:50:55;36.07;;;18.70;;
11398;SDS011;5755;48.116;11.608;2023-01-24T05:53:23;36.27;;;18.50;;
11398;SDS011;5755;48.116;11.608;2023-01-24T05:55:54;35.73;;;17.80;;
11398;SDS011;5755;48.116;11.608;2023-01-24T05:58:23;37.17;;;18.80;;
11398;SDS011;5755;48.116;11.608;2023-01-24T06:00:50;38.37;;;19.33;;
11398;SDS011;5755;48.116;11.608;2023-01-24T06:03:17;37.67;;;19.40;;
11398;SDS011;5755;48.116;11.608;2023-01-24T06:05:45;34.77;;;18.53;;
11398;SDS011;5755;48.116;11.608;2023-01-24T06:08:12;33.17;;;17.10;;
11398;SDS011;5755;48.116;11.608;2023-01-24T06:10:39;34.90;;;18.27;;
11398;SDS011;5755;48.116;11.608;2023-01-24T06:13:06;38.67;;;18.20;;
11398;SDS011;5755;48.116;11.608;2023-01-24T06:15:34;36.10;;;17.90;;
11398;SDS011;5755;48.116;11.608;2023-01-24T06:18:01;37.57;;;18.77;;
11398;SDS011;5755;48.116;11.608;2023-01-24T06:20:29;36.73;;;19.13;;
11398;SDS011;5755;48.116;11.608;2023-01-24T06:22:56;36.03;;;18.17;;
11398;SDS011;5755;48.116;11.608;2023-01-24T06:25:28;39.53;;;18.57;;
11398;SDS011;5755;48.116;11.608;2023-01-24T06:27:55;37.93;;;18.47;;
11398;SDS011;5755;48.116;11.608;2023-01-24T06:30:23;36.37;;;17.93;;
11398;SDS011;5755;48.116;11.608;2023-01-24T06:33:10;35.80;;;18.00;;
11398;SDS011;5755;48.116;11.608;2023-01-24T06:36:04;35.83;;;18.73;;
11398;SDS011;5755;48.116;11.608;2023-01-24T06:38:41;42.23;;;19.60;;
11398;SDS011;5755;48.116;11.608;2023-01-24T06:41:11;39.13;;;19.33;;
11398;SDS011;5755;48.116;11.608;2023-01-24T06:43:40;38.03;;;19.90;;
11398;SDS011;5755;48.116;11.608;2023-01-24T06:46:08;44.23;;;21.50;;
11398;SDS011;5755;48.116;11.608;2023-01-24T06:48:36;44.77;;;21.97;;
11398;SDS011;5755;48.116;11.608;2023-01-24T06:51:03;46.80;;;22.80;;
11398;SDS011;5755;48.116;11.608;2023-01-24T06:53:31;43.90;;;22.70;;
11398;SDS011;5755;48.116;11.608;2023-01-24T06:55:58;46.00;;;23.27;;
11398;SDS011;5755;48.116;11.608;2023-01-24T06:58:25;54.07;;;24.53;;
11398;SDS011;5755;48.116;11.608;2023-01-24T07:00:52;49.10;;;24.63;;
11398;SDS011;5755;48.116;11.608;2023-01-24T07:03:19;46.30;;;23.47;;
11398;SDS011;5755;48.116;11.608;2023-01-24T07:05:48;58.37;;;23.90;;
11398;SDS011;5755;48.116;11.608;2023-01-24T07:08:15;48.27;;;24.03;;
11398;SDS011;5755;48.116;11.608;2023-01-24T07:10:42;46.77;;;23.90;;
11398;SDS011;5755;48.116;11.608;2023-01-24T07:13:09;52.63;;;24.50;;
11398;SDS011;5755;48.116;11.608;2023-01-24T07:15:36;53.40;;;24.37;;
11398;SDS011;5755;48.116;11.608;2023-01-24T07:18:04;45.73;;;23.40;;
11398;SDS011;5755;48.116;11.608;2023-01-24T07:20:31;53.27;;;24.37;;
11398;SDS011;5755;48.116;11.608;2023-01-24T07:23:00;47.10;;;23.67;;
11398;SDS011;5755;48.116;11.608;2023-01-24T07:25:27;44.13;;;23.83;;
11398;SDS011;5755;48.116;11.608;2023-01-24T07:27:55;50.03;;;24.87;;
11398;SDS011;5755;48.116;11.608;2023-01-24T07:30:22;43.90;;;22.50;;
11398;SDS011;5755;48.116;11.608;2023-01-24T07:32:49;44.87;;;22.23;;
11398;SDS011;5755;48.116;11.608;2023-01-24T07:35:16;47.23;;;24.20;;
11398;SDS011;5755;48.116;11.608;2023-01-24T07:37:43;46.50;;;23.67;;
11398;SDS011;5755;48.116;11.608;2023-01-24T07:40:12;41.63;;;22.70;;
11398;SDS011;5755;48.116;11.608;2023-01-24T07:42:39;46.17;;;22.17;;
11398;SDS011;5755;48.116;11.608;2023-01-24T07:45:06;43.87;;;22.73;;
11398;SDS011;5755;48.116;11.608;2023-01-24T07:47:33;45.17;;;23.37;;
11398;SDS011;5755;48.116;11.608;2023-01-24T07:50:00;45.23;;;23.07;;
11398;SDS011;5755;48.116;11.608;2023-01-24T07:52:27;41.77;;;21.43;;
11398;SDS011;5755;48.116;11.608;2023-01-24T07:54:54;45.70;;;22.40;;
11398;SDS011;5755;48.116;11.608;2023-01-24T07:57:23;42.67;;;21.20;;
11398;SDS011;5755;48.116;11.608;2023-01-24T07:59:49;39.30;;;21.33;;
11398;SDS011;5755;48.116;11.608;2023-01-24T08:02:16;42.50;;;21.43;;
11398;SDS011;5755;48.116;11.608;2023-01-24T08:04:43;43.33;;;21.70;;
11398;SDS011;5755;48.116;11.608;2023-01-24T08:07:10;43.20;;;22.57;;
11398;SDS011;5755;48.116;11.608;2023-01-24T08:09:42;37.37;;;20.50;;
11398;SDS011;5755;48.116;11.608;2023-01-24T08:12:10;40.43;;;20.97;;
11398;SDS011;5755;48.116;11.608;2023-01-24T08:14:38;41.83;;;20.70;;
11398;SDS011;5755;48.116;11.608;2023-01-24T08:17:05;45.57;;;21.90;;
11398;SDS011;5755;48.116;11.608;2023-01-24T08:19:32;38.57;;;20.87;;
11398;SDS011;5755;48.116;11.608;2023-01-24T08:22:00;36.50;;;20.10;;
11398;SDS011;5755;48.116;11.608;2023-01-24T08:24:27;39.80;;;21.47;;
11398;SDS011;5755;48.116;11.608;2023-01-24T08:26:54;39.60;;;21.00;;
11398;SDS011;5755;48.116;11.608;2023-01-24T08:29:21;37.67;;;20.20;;
11398;SDS011;5755;48.116;11.608;2023-01-24T08:31:49;36.73;;;20.60;;
11398;SDS011;5755;48.116;11.608;2023-01-24T08:34:16;36.80;;;20.07;;
11398;SDS011;5755;48.116;11.608;2023-01-24T08:36:43;41.30;;;19.60;;
11398;SDS011;5755;48.116;11.608;2023-01-24T08:39:10;39.67;;;19.47;;
11398;SDS011;5755;48.116;11.608;2023-01-24T08:41:37;38.90;;;20.00;;
11398;SDS011;5755;48.116;11.608;2023-01-24T08:44:04;38.17;;;19.83;;
11398;SDS011;5755;48.116;11.608;2023-01-24T08:46:32;40.30;;;20.43;;
11398;SDS011;5755;48.116;11.608;2023-01-24T08:49:01;38.47;;;18.47;;
11398;SDS011;5755;48.116;11.608;2023-01-24T08:51:28;31.63;;;16.93;;
11398;SDS011;5755;48.116;11.608;2023-01-24T08:53:55;33.43;;;16.93;;
11398;SDS011;5755;48.116;11.608;2023-01-24T08:56:22;33.80;;;17.57;;
11398;SDS011;5755;48.116;11.608;2023-01-24T08:58:49;36.17;;;17.53;;
11398;SDS011;5755;48.116;11.608;2023-01-24T09:01:16;37.10;;;17.47;;
11398;SDS011;5755;48.116;11.608;2023-01-24T09:03:43;30.97;;;17.07;;
11398;SDS011;5755;48.116;11.608;2023-01-24T09:06:11;29.03;;;16.23;;
11398;SDS011;5755;48.116;11.608;2023-01-24T09:08:39;29.63;;;16.23;;
11398;SDS011;5755;48.116;11.608;2023-01-24T09:11:06;28.97;;;16.27;;
11398;SDS011;5755;48.116;11.608;2023-01-24T09:13:35;34.90;;;16.50;;
11398;SDS011;5755;48.116;11.608;2023-01-24T09:16:01;29.43;;;16.23;;
11398;SDS011;5755;48.116;11.608;2023-01-24T09:18:28;28.40;;;14.57;;
11398;SDS011;5755;48.116;11.608;2023-01-24T09:20:59;28.63;;;15.33;;
11398;SDS011;5755;48.116;11.608;2023-01-24T09:23:28;27.40;;;14.83;;
11398;SDS011;5755;48.116;11.608;2023-01-24T09:25:55;28.50;;;14.57;;
11398;SDS011;5755;48.116;11.608;2023-01-24T09:28:22;25.47;;;14.70;;
11398;SDS011;5755;48.116;11.608;2023-01-24T09:30:49;24.07;;;14.30;;
11398;SDS011;5755;48.116;11.608;2023-01-24T09:33:17;26.10;;;13.77;;
11398;SDS011;5755;48.116;11.608;2023-01-24T09:35:50;25.97;;;14.00;;
11398;SDS011;5755;48.116;11.608;2023-01-24T09:38:18;22.33;;;13.30;;
11398;SDS011;5755;48.116;11.608;2023-01-24T09:40:49;26.93;;;14.67;;
11398;SDS011;5755;48.116;11.608;2023-01-24T09:43:25;24.63;;;13.03;;
11398;SDS011;5755;48.116;11.608;2023-01-24T09:46:20;24.70;;;13.97;;
11398;SDS011;5755;48.116;11.608;2023-01-24T09:48:57;25.13;;;14.50;;
11398;SDS011;5755;48.116;11.608;2023-01-24T09:51:29;24.47;;;14.93;;
11398;SDS011;5755;48.116;11.608;2023-01-24T09:54:00;26.23;;;15.30;;
11398;SDS011;5755;48.116;11.608;2023-01-24T09:56:32;30.03;;;16.03;;
11398;SDS011;5755;48.116;11.608;2023-01-24T09:59:05;27.43;;;15.87;;
11398;SDS011;5755;48.116;11.608;2023-01-24T10:01:39;26.27;;;15.80;;
11398;SDS011;5755;48.116;11.608;2023-01-24T10:04:16;27.23;;;14.73;;
11398;SDS011;5755;48.116;11.608;2023-01-24T10:06:58;26.13;;;15.70;;
11398;SDS011;5755;48.116;11.608;2023-01-24T10:10:02;23.90;;;14.93;;
11398;SDS011;5755;48.116;11.608;2023-01-24T10:12:40;23.00;;;14.17;;
11398;SDS011;5755;48.116;11.608;2023-01-24T10:15:16;23.10;;;14.33;;
11398;SDS011;5755;48.116;11.608;2023-01-24T10:18:00;22.17;;;13.70;;
11398;SDS011;5755;48.116;11.608;2023-01-24T10:20:40;26.33;;;15.67;;
11398;SDS011;5755;48.116;11.608;2023-01-24T10:23:23;23.50;;;13.97;;
11398;SDS011;5755;48.116;11.608;2023-01-24T10:25:54;24.20;;;13.83;;
11398;SDS011;5755;48.116;11.608;2023-01-24T10:28:24;21.17;;;14.00;;
11398;SDS011;5755;48.116;11.608;2023-01-24T10:31:01;20.13;;;13.47;;
11398;SDS011;5755;48.116;11.608;2023-01-24T10:33:31;20.50;;;13.13;;
11398;SDS011;5755;48.116;11.608;2023-01-24T10:36:04;20.97;;;13.83;;
11398;SDS011;5755;48.116;11.608;2023-01-24T10:38:36;24.17;;;15.07;;
11398;SDS011;5755;48.116;11.608;2023-01-24T10:41:14;23.47;;;14.97;;
11398;SDS011;5755;48.116;11.608;2023-01-24T10:43:45;26.20;;;15.63;;
11398;SDS011;5755;48.116;11.608;2023-01-24T10:46:24;26.23;;;14.83;;
11398;SDS011;5755;48.116;11.608;2023-01-24T10:49:11;25.17;;;15.37;;
11398;SDS011;5755;48.116;11.608;2023-01-24T10:51:52;24.97;;;15.60;;
11398;SDS011;5755;48.116;11.608;2023-01-24T10:54:41;23.10;;;14.43;;
11398;SDS011;5755;48.116;11.608;2023-01-24T10:57:16;23.83;;;15.27;;
11398;SDS011;5755;48.116;11.608;2023-01-24T10:59:47;24.97;;;16.27;;
11398;SDS011;5755;48.116;11.608;2023-01-24T11:02:18;25.67;;;15.87;;
11398;SDS011;5755;48.116;11.608;2023-01-24T11:04:51;24.60;;;14.90;;
11398;SDS011;5755;48.116;11.608;2023-01-24T11:07:28;24.27;;;16.47;;
11398;SDS011;5755;48.116;11.608;2023-01-24T11:09:58;27.23;;;16.13;;
11398;SDS011;5755;48.116;11.608;2023-01-24T11:12:26;25.97;;;15.93;;
11398;SDS011;5755;48.116;11.608;2023-01-24T11:14:55;24.33;;;16.43;;
11398;SDS011;5755;48.116;11.608;2023-01-24T11:17:28;26.10;;;16.97;;
11398;SDS011;5755;48.116;11.608;2023-01-24T11:19:58;26.37;;;15.17;;
11398;SDS011;5755;48.116;11.608;2023-01-24T11:22:28;24.87;;;15.23;;
11398;SDS011;5755;48.116;11.608;2023-01-24T11:25:00;24.23;;;15.97;;
11398;SDS011;5755;48.116;11.608;2023-01-24T11:27:30;27.43;;;16.53;;
11398;SDS011;5755;48.116;11.608;2023-01-24T11:30:06;26.33;;;16.83;;
11398;SDS011;5755;48.116;11.608;2023-01-24T11:32:42;27.17;;;16.70;;
11398;SDS011;5755;48.116;11.608;2023-01-24T11:35:21;25.50;;;15.80;;
11398;SDS011;5755;48.116;11.608;2023-01-24T11:38:03;25.23;;;15.70;;
11398;SDS011;5755;48.116;11.608;2023-01-24T11:40:52;24.03;;;15.73;;
11398;SDS011;5755;48.116;11.608;2023-01-24T11:43:47;24.53;;;15.80;;
11398;SDS011;5755;48.116;11.608;2023-01-24T11:46:53;24.77;;;15.67;;
11398;SDS011;5755;48.116;11.608;2023-01-24T11:52:41;25.30;;;14.77;;
11398;SDS011;5755;48.116;11.608;2023-01-24T11:55:18;23.70;;;14.80;;
11398;SDS011;5755;48.116;11.608;2023-01-24T11:57:56;24.53;;;15.80;;
11398;SDS011;5755;48.116;11.608;2023-01-24T12:00:32;27.37;;;16.20;;
11398;SDS011;5755;48.116;11.608;2023-01-24T12:03:13;25.20;;;14.77;;
11398;SDS011;5755;48.116;11.608;2023-01-24T12:08:47;24.87;;;14.77;;
11398;SDS011;5755;48.116;11.608;2023-01-24T12:11:22;25.53;;;15.73;;
11398;SDS011;5755;48.116;11.608;2023-01-24T12:13:56;23.13;;;15.03;;
11398;SDS011;5755;48.116;11.608;2023-01-24T12:16:38;25.93;;;14.63;;
11398;SDS011;5755;48.116;11.608;2023-01-24T12:19:20;21.90;;;13.97;;
11398;SDS011;5755;48.116;11.608;2023-01-24T12:21:59;24.47;;;14.17;;
11398;SDS011;5755;48.116;11.608;2023-01-24T12:24:27;22.70;;;14.57;;
11398;SDS011;5755;48.116;11.608;2023-01-24T12:26:58;23.40;;;14.50;;
11398;SDS011;5755;48.116;11.608;2023-01-24T12:29:28;23.47;;;13.77;;
11398;SDS011;5755;48.116;11.608;2023-01-24T12:32:00;25.03;;;14.13;;
11398;SDS011;5755;48.116;11.608;2023-01-24T12:34:34;23.40;;;14.30;;
11398;SDS011;5755;48.116;11.608;2023-01-24T12:37:10;22.60;;;15.07;;
11398;SDS011;5755;48.116;11.608;2023-01-24T12:39:46;22.60;;;13.97;;
11398;SDS011;5755;48.116;11.608;2023-01-24T12:42:21;22.80;;;14.30;;
11398;SDS011;5755;48.116;11.608;2023-01-24T12:44:56;20.47;;;12.93;;
11398;SDS011;5755;48.116;11.608;2023-01-24T12:47:28;22.37;;;13.47;;
11398;SDS011;5755;48.116;11.608;2023-01-24T12:50:08;23.83;;;14.43;;
11398;SDS011;5755;48.116;11.608;2023-01-24T12:52:42;23.13;;;14.07;;
11398;SDS011;5755;48.116;11.608;2023-01-24T12:55:14;23.97;;;14.13;;
11398;SDS011;5755;48.116;11.608;2023-01-24T12:57:45;21.73;;;12.77;;
11398;SDS011;5755;48.116;11.608;2023-01-24T13:00:17;23.07;;;13.33;;
11398;SDS011;5755;48.116;11.608;2023-01-24T13:02:49;22.90;;;15.00;;
11398;SDS011;5755;48.116;11.608;2023-01-24T13:05:45;23.70;;;14.13;;
11398;SDS011;5755;48.116;11.608;2023-01-24T13:08:22;22.73;;;14.73;;
11398;SDS011;5755;48.116;11.608;2023-01-24T13:10:57;21.07;;;13.80;;
11398;SDS011;5755;48.116;11.608;2023-01-24T13:13:33;27.37;;;14.47;;
11398;SDS011;5755;48.116;11.608;2023-01-24T13:16:21;22.47;;;14.03;;
11398;SDS011;5755;48.116;11.608;2023-01-24T13:19:13;21.40;;;14.13;;
11398;SDS011;5755;48.116;11.608;2023-01-24T13:21:53;23.47;;;14.00;;
11398;SDS011;5755;48.116;11.608;2023-01-24T13:24:34;20.00;;;13.60;;
11398;SDS011;5755;48.116;11.608;2023-01-24T13:27:25;26.13;;;14.90;;
11398;SDS011;5755;48.116;11.608;2023-01-24T13:32:50;22.57;;;13.93;;
11398;SDS011;5755;48.116;11.608;2023-01-24T13:35:19;23.37;;;15.00;;
11398;SDS011;5755;48.116;11.608;2023-01-24T13:37:52;23.20;;;14.03;;
11398;SDS011;5755;48.116;11.608;2023-01-24T13:40:23;24.27;;;14.70;;
11398;SDS011;5755;48.116;11.608;2023-01-24T13:42:53;22.40;;;14.30;;
11398;SDS011;5755;48.116;11.608;2023-01-24T13:51:21;24.13;;;14.47;;
11398;SDS011;5755;48.116;11.608;2023-01-24T13:54:01;24.37;;;15.27;;
11398;SDS011;5755;48.116;11.608;2023-01-24T13:56:29;24.77;;;15.90;;
11398;SDS011;5755;48.116;11.608;2023-01-24T13:58:56;25.57;;;16.13;;
11398;SDS011;5755;48.116;11.608;2023-01-24T14:01:24;23.27;;;14.40;;
11398;SDS011;5755;48.116;11.608;2023-01-24T14:03:53;26.40;;;15.07;;
11398;SDS011;5755;48.116;11.608;2023-01-24T14:06:22;25.60;;;15.07;;
11398;SDS011;5755;48.116;11.608;2023-01-24T14:08:59;22.57;;;15.27;;
11398;SDS011;5755;48.116;11.608;2023-01-24T14:11:40;22.50;;;14.80;;
11398;SDS011;5755;48.116;11.608;2023-01-24T14:14:30;24.43;;;15.10;;
11398;SDS011;5755;48.116;11.608;2023-01-24T14:17:01;24.80;;;14.70;;
11398;SDS011;5755;48.116;11.608;2023-01-24T14:19:31;24.57;;;15.10;;
11398;SDS011;5755;48.116;11.608;2023-01-24T14:22:02;26.30;;;15.03;;
11398;SDS011;5755;48.116;11.608;2023-01-24T14:24:51;24.00;;;15.43;;
11398;SDS011;5755;48.116;11.608;2023-01-24T14:27:21;26.87;;;15.93;;
11398;SDS011;5755;48.116;11.608;2023-01-24T14:29:54;24.93;;;15.63;;
11398;SDS011;5755;48.116;11.608;2023-01-24T14:32:27;26.07;;;15.60;;
11398;SDS011;5755;48.116;11.608;2023-01-24T14:35:01;25.50;;;16.53;;
11398;SDS011;5755;48.116;11.608;2023-01-24T14:37:38;28.90;;;17.73;;
11398;SDS011;5755;48.116;11.608;2023-01-24T14:40:10;26.83;;;17.00;;
11398;SDS011;5755;48.116;11.608;2023-01-24T14:42:38;27.00;;;16.83;;
11398;SDS011;5755;48.116;11.608;2023-01-24T14:45:06;30.17;;;18.17;;
11398;SDS011;5755;48.116;11.608;2023-01-24T14:47:40;27.80;;;17.20;;
11398;SDS011;5755;48.116;11.608;2023-01-24T14:50:24;25.57;;;16.30;;
11398;SDS011;5755;48.116;11.608;2023-01-24T14:52:53;29.33;;;17.47;;
11398;SDS011;5755;48.116;11.608;2023-01-24T14:55:30;26.43;;;17.33;;
11398;SDS011;5755;48.116;11.608;2023-01-24T14:58:16;27.97;;;17.50;;
11398;SDS011;5755;48.116;11.608;2023-01-24T15:00:46;27.97;;;17.30;;